Messwerte Sand Point

Temperatur

Temperatur
°C
1618952400 13.00 13.00 6
1618956000 14.00 14.00 6
1618959600 15.00 15.00 6
1618963200 16.00 16.00 6
1618966800 17.00 17.00 6
1618970400 18.00 18.00 5
1618974000 19.00 19.00
1618977600 20.00 20.00 5
1618981200 21.00 21.00 5
1618984800 22.00 22.00 5
1618988400 23.00 23.00
1618992000 0.00 0.00 6
1618995600 1.00 1.00 6
1618999200 2.00 2.00 6
1619002800 3.00 3.00 6
1619006400 4.00 4.00 6
1619010000 5.00 5.00 6
1619013600 6.00 6.00 6
1619017200 7.00 7.00 6
1619020800 8.00 8.00 6
1619024400 9.00 9.00 6
1619028000 10.00 10.00 6
1619031600 11.00 11.00 6
1619035200 12.00 12.00 6

Aktuellste Messwerte

Wettercharakter
Wetter: bedeckt, wenig Regen
Temperatur
6 °C
Feuchtigkeit
85 %
Wind
45 km/hWindrichtung: Nordost
Böen
100 km/h
Luftdruck
1006 hPa
Messzeit: 21. April 2021, 13.00Datenquelle: METAR

Weitere Messstationen in der Nähe

Messstation Temperatur Entfernung
Nelson Lagoon 5 °C 87 km
King Cove 6 °C 113 km
Cold Bay 6 °C 139 km
Port Heiden 7 °C 216 km
Egegik 5 °C 372 km
Cape Newenham 4 °C 382 km
Togiac Village 6 °C 415 km

Wind

Windrichtung Böen Mittelwind
° km/h km/h
1618952400 13.00 12.00 - 13.00 5
1618956000 14.00 13.00 - 14.00 50° 30 15
1618959600 15.00 14.00 - 15.00 70° 15
1618963200 16.00 15.00 - 16.00 40° 30 15
1618966800 17.00 16.00 - 17.00 40° 30 20
1618970400 18.00 17.00 - 18.00 30° 35 20
1618974000 19.00 18.00 - 19.00
1618977600 20.00 19.00 - 20.00 40° 40 25
1618981200 21.00 20.00 - 21.00 50° 45 20
1618984800 22.00 21.00 - 22.00 40° 45 30
1618988400 23.00 22.00 - 23.00
1618992000 0.00 23.00 - 0.00 40° 45 25
1618995600 1.00 0.00 - 1.00 30° 50 25
1618999200 2.00 1.00 - 2.00 40° 60 30
1619002800 3.00 2.00 - 3.00 30° 45 30
1619006400 4.00 3.00 - 4.00 40° 45 30
1619010000 5.00 4.00 - 5.00 50° 45 30
1619013600 6.00 5.00 - 6.00 50° 50 25
1619017200 7.00 6.00 - 7.00 40° 50 30
1619020800 8.00 7.00 - 8.00 50° 60 25
1619024400 9.00 8.00 - 9.00 40° 60 30
1619028000 10.00 9.00 - 10.00 50° 60 30
1619031600 11.00 10.00 - 11.00 50° 60 30
1619035200 12.00 11.00 - 12.00 50° 75 45

Ihre Wetterstation

Fehlt Ihre Wetterstation auf unserem Portal?

Schreiben Sie an network@meteonews.ch

Klima

Wann ist es am wärmsten? Wann regnet es am wenigsten? Unsere Klimadaten geben Auskunft.